Time;durP1;ratioP1;P1;durP2;ratioP2;P2;SDS_P1;SDS_P2;PMS_P1;PMS_P2;Temp;Humidity;BMP_temperature;BMP_pressure;BME280_temperature;BME280_humidity;BME280_pressure;Samples;Min_cycle;Max_cycle;Signal;HPM_P1;HPM_P2
2023/05/08 00:00:42;;;;;;;3.60;3.50;;;15.20;99.90;;;;;;5148276;27;20486;-67
2023/05/08 00:03:08;;;;;;;3.60;3.50;;;15.20;99.90;;;;;;5143555;27;20456;-67
2023/05/08 00:05:37;;;;;;;3.30;3.20;;;15.10;99.90;;;;;;5145487;27;20467;-66
2023/05/08 00:08:05;;;;;;;3.50;3.40;;;15.10;99.90;;;;;;5145104;27;20486;-66
2023/05/08 00:10:32;;;;;;;3.40;3.30;;;15.00;99.90;;;;;;5144723;27;20492;-68
2023/05/08 00:13:01;;;;;;;3.60;3.50;;;14.90;99.90;;;;;;5142153;27;20448;-67
2023/05/08 00:15:28;;;;;;;3.70;3.60;;;14.80;99.90;;;;;;5151077;27;20526;-67
2023/05/08 00:17:55;;;;;;;3.87;3.77;;;14.70;99.90;;;;;;5142450;27;20659;-67
2023/05/08 00:20:23;;;;;;;3.90;3.80;;;14.70;99.90;;;;;;5144392;27;20551;-67
2023/05/08 00:22:51;;;;;;;3.63;3.53;;;14.70;99.90;;;;;;5148257;27;20500;-67
2023/05/08 00:25:18;;;;;;;4.00;3.90;;;14.70;99.90;;;;;;5144309;27;20637;-67
2023/05/08 00:27:44;;;;;;;3.87;3.77;;;14.70;99.90;;;;;;5150769;27;20471;-67
2023/05/08 00:30:13;;;;;;;3.80;3.70;;;14.70;99.90;;;;;;5137723;27;20462;-67
2023/05/08 00:32:40;;;;;;;3.93;3.83;;;14.70;99.90;;;;;;5145175;27;20459;-66
2023/05/08 00:35:07;;;;;;;4.20;4.10;;;14.70;99.90;;;;;;5147576;27;20509;-67
2023/05/08 00:37:34;;;;;;;3.90;3.80;;;14.70;99.90;;;;;;5139490;27;20467;-68
2023/05/08 00:40:02;;;;;;;4.50;4.40;;;14.70;99.90;;;;;;5149026;27;20744;-68
2023/05/08 00:42:30;;;;;;;4.23;4.13;;;14.70;99.90;;;;;;5138451;27;20456;-68
2023/05/08 00:44:57;;;;;;;4.80;4.70;;;14.60;99.90;;;;;;5146251;27;20505;-68
2023/05/08 00:47:25;;;;;;;4.53;4.43;;;14.70;99.90;;;;;;5143011;27;20558;-67
2023/05/08 00:49:52;;;;;;;4.63;4.53;;;14.60;99.90;;;;;;5142644;27;20455;-68
2023/05/08 00:52:20;;;;;;;4.33;4.23;;;14.60;99.90;;;;;;5141548;27;20472;-67
2023/05/08 00:54:49;;;;;;;4.10;4.00;;;14.60;99.90;;;;;;5151245;27;20459;-68
2023/05/08 00:57:18;;;;;;;3.90;3.80;;;14.60;99.90;;;;;;5137103;27;20499;-67
2023/05/08 00:59:46;;;;;;;4.00;3.90;;;14.60;99.90;;;;;;5143573;27;20551;-67
2023/05/08 01:02:14;;;;;;;5.00;4.80;;;14.60;99.90;;;;;;5141481;27;20514;-67
2023/05/08 01:04:43;;;;;;;4.20;4.10;;;14.70;99.90;;;;;;5139316;27;20455;-67
2023/05/08 01:07:11;;;;;;;4.43;4.33;;;14.70;99.90;;;;;;5138705;27;20460;-67
2023/05/08 01:09:39;;;;;;;5.10;4.90;;;14.80;99.90;;;;;;5143642;27;20462;-67
2023/05/08 01:12:15;;;;;;;4.30;4.20;;;14.80;99.90;;;;;;5147260;27;20508;-67
2023/05/08 01:14:56;;;;;;;4.20;4.10;;;14.80;99.90;;;;;;5140418;27;21005;-67
2023/05/08 01:17:37;;;;;;;4.17;4.07;;;14.70;99.90;;;;;;5149299;27;20478;-68
2023/05/08 01:20:20;;;;;;;4.40;4.30;;;14.70;99.90;;;;;;5139977;27;20456;-68
2023/05/08 01:23:29;;;;;;;4.40;4.30;;;14.60;99.90;;;;;;5136527;27;20551;-67
2023/05/08 01:26:20;;;;;;;4.57;4.47;;;14.60;99.90;;;;;;5143589;27;20463;-67
2023/05/08 01:29:30;;;;;;;4.47;4.37;;;14.60;99.90;;;;;;5136682;27;20511;-66
2023/05/08 01:32:15;;;;;;;4.67;4.57;;;14.60;99.90;;;;;;5146543;27;20483;-68
2023/05/08 01:34:51;;;;;;;5.13;5.03;;;14.60;99.90;;;;;;5140432;27;20459;-67
2023/05/08 01:37:27;;;;;;;4.87;4.77;;;14.60;99.90;;;;;;5134070;27;20456;-67
2023/05/08 01:40:02;;;;;;;5.17;4.97;;;14.60;99.90;;;;;;5141112;27;20459;-67
2023/05/08 01:42:40;;;;;;;6.10;5.60;;;14.70;99.90;;;;;;5145062;27;20462;-67
2023/05/08 01:45:13;;;;;;;4.50;4.40;;;14.80;99.90;;;;;;5137761;27;20484;-67
2023/05/08 01:47:44;;;;;;;5.00;4.90;;;14.40;99.90;;;;;;5137484;27;20462;-67
2023/05/08 01:50:16;;;;;;;4.77;4.67;;;14.30;99.90;;;;;;5137640;27;20459;-67
2023/05/08 01:52:46;;;;;;;4.67;4.57;;;14.30;99.90;;;;;;5144272;27;20995;-67
2023/05/08 01:55:17;;;;;;;5.40;5.20;;;14.40;99.90;;;;;;5139137;27;20514;-67
2023/05/08 01:57:49;;;;;;;4.80;4.70;;;14.50;99.90;;;;;;5144661;27;20452;-68
2023/05/08 02:00:19;;;;;;;4.60;4.50;;;14.60;99.90;;;;;;5148723;27;20505;-67
2023/05/08 02:02:50;;;;;;;5.50;5.30;;;14.40;99.90;;;;;;5158437;27;20455;-68
2023/05/08 02:05:19;;;;;;;4.87;4.77;;;14.40;99.90;;;;;;5138653;27;20944;-67
2023/05/08 02:07:49;;;;;;;5.03;4.93;;;14.40;99.90;;;;;;5139530;27;20880;-67
2023/05/08 02:10:18;;;;;;;4.70;4.60;;;14.40;99.90;;;;;;5141983;27;20952;-66
2023/05/08 02:12:46;;;;;;;5.43;5.23;;;14.40;99.90;;;;;;5148896;27;20563;-67
2023/05/08 02:15:17;;;;;;;5.57;5.37;;;14.30;99.90;;;;;;5137717;27;20475;-68
2023/05/08 02:17:49;;;;;;;4.60;4.50;;;14.20;99.90;;;;;;5139679;27;21637;-67
2023/05/08 02:20:18;;;;;;;4.47;4.37;;;14.20;99.90;;;;;;5137372;27;20824;-67
2023/05/08 02:22:48;;;;;;;4.77;4.67;;;14.20;99.90;;;;;;5142290;27;20965;-67
2023/05/08 02:25:16;;;;;;;4.07;3.97;;;14.40;99.90;;;;;;5138410;27;20457;-67
2023/05/08 02:27:46;;;;;;;3.80;3.70;;;14.50;99.90;;;;;;5142550;27;20468;-67
2023/05/08 02:30:16;;;;;;;4.40;4.30;;;14.60;99.90;;;;;;5136516;27;20459;-67
2023/05/08 02:32:44;;;;;;;4.73;4.63;;;14.60;99.90;;;;;;5140883;27;20491;-67
2023/05/08 02:35:15;;;;;;;4.40;4.30;;;14.70;99.90;;;;;;5143563;27;20460;-67
2023/05/08 02:37:44;;;;;;;4.10;4.00;;;14.80;99.90;;;;;;5135532;27;20459;-67
2023/05/08 02:40:12;;;;;;;4.37;4.27;;;14.70;99.90;;;;;;5148795;27;20455;-68
2023/05/08 02:42:39;;;;;;;4.30;4.20;;;14.70;99.90;;;;;;5141957;27;20459;-67
2023/05/08 02:45:10;;;;;;;4.47;4.37;;;14.70;99.90;;;;;;5137960;27;20451;-67
2023/05/08 02:47:43;;;;;;;4.60;4.50;;;14.60;99.90;;;;;;5131925;27;20456;-67
2023/05/08 02:50:17;;;;;;;4.80;4.70;;;14.70;99.90;;;;;;5147368;27;20446;-67
2023/05/08 02:52:48;;;;;;;5.27;5.07;;;14.70;99.90;;;;;;5148125;27;20478;-67
2023/05/08 02:55:24;;;;;;;4.40;4.30;;;14.70;99.90;;;;;;5141829;27;20456;-67
2023/05/08 02:58:03;;;;;;;5.17;4.97;;;14.70;99.90;;;;;;5143342;27;20455;-67
2023/05/08 03:00:34;;;;;;;4.63;4.53;;;14.70;99.90;;;;;;5133351;27;20455;-67
2023/05/08 03:03:07;;;;;;;4.23;4.13;;;14.80;99.90;;;;;;5145184;27;20500;-66
2023/05/08 03:05:39;;;;;;;3.87;3.77;;;14.70;99.90;;;;;;5136223;27;20456;-68
2023/05/08 03:08:11;;;;;;;6.23;5.93;;;14.70;99.90;;;;;;5146935;27;20516;-68
2023/05/08 03:10:40;;;;;;;7.80;7.30;;;14.70;99.90;;;;;;5137107;27;20840;-67
2023/05/08 03:13:09;;;;;;;4.90;4.70;;;14.90;99.90;;;;;;5135322;27;20875;-68
2023/05/08 03:15:42;;;;;;;4.77;4.57;;;14.90;99.90;;;;;;5142153;27;20502;-67
2023/05/08 03:18:13;;;;;;;3.97;3.87;;;14.90;99.90;;;;;;5133900;27;20480;-67
2023/05/08 03:20:44;;;;;;;4.07;3.97;;;14.80;99.90;;;;;;5139483;27;20470;-67
2023/05/08 03:23:14;;;;;;;5.03;4.73;;;14.80;99.90;;;;;;5141272;27;20851;-67
2023/05/08 03:25:43;;;;;;;3.83;3.73;;;14.70;99.90;;;;;;5147808;27;21138;-68
2023/05/08 03:28:11;;;;;;;3.70;3.60;;;14.60;99.90;;;;;;5140196;27;20460;-67
2023/05/08 03:30:40;;;;;;;4.77;4.33;;;14.50;99.90;;;;;;5147139;27;20451;-67
2023/05/08 03:33:07;;;;;;;4.00;3.90;;;14.50;99.90;;;;;;5146871;27;20450;-67
2023/05/08 03:35:36;;;;;;;4.00;3.90;;;14.40;99.90;;;;;;5139736;27;20460;-67
2023/05/08 03:38:04;;;;;;;4.33;4.23;;;14.40;99.90;;;;;;5133748;27;20867;-67
2023/05/08 03:40:35;;;;;;;4.10;4.00;;;14.40;99.90;;;;;;5144902;27;20455;-67
2023/05/08 03:43:03;;;;;;;4.60;4.50;;;14.30;99.90;;;;;;5145068;27;20965;-67
2023/05/08 03:45:34;;;;;;;4.10;4.00;;;14.20;99.90;;;;;;5137109;27;20479;-67
2023/05/08 03:48:03;;;;;;;4.43;4.33;;;14.10;99.90;;;;;;5144624;27;20454;-68
2023/05/08 03:50:31;;;;;;;4.30;4.20;;;13.90;99.90;;;;;;5139903;27;20519;-67
2023/05/08 03:52:58;;;;;;;4.47;4.37;;;13.90;99.90;;;;;;5148832;27;20838;-66
2023/05/08 03:55:27;;;;;;;8.10;6.57;;;13.90;99.90;;;;;;5143291;27;20455;-69
2023/05/08 03:58:00;;;;;;;4.80;4.70;;;13.80;99.90;;;;;;5138426;27;20463;-66
2023/05/08 04:00:37;;;;;;;5.50;5.30;;;13.80;99.90;;;;;;5150035;27;20451;-67
2023/05/08 04:03:15;;;;;;;4.20;4.10;;;13.70;99.90;;;;;;5147579;27;20470;-68
2023/05/08 04:05:50;;;;;;;4.40;4.30;;;13.60;99.90;;;;;;5140524;27;20715;-67
2023/05/08 04:08:22;;;;;;;4.60;4.50;;;13.50;99.90;;;;;;5144369;27;20459;-68
2023/05/08 04:10:58;;;;;;;5.00;4.90;;;13.40;99.90;;;;;;5140406;27;20467;-68
2023/05/08 04:13:31;;;;;;;5.00;4.90;;;13.40;99.90;;;;;;5147604;27;20945;-68
2023/05/08 04:16:05;;;;;;;5.10;5.00;;;13.30;99.90;;;;;;5138545;27;20580;-66
2023/05/08 04:18:37;;;;;;;5.80;5.60;;;13.30;99.90;;;;;;5148702;27;20556;-67
2023/05/08 04:21:08;;;;;;;4.90;4.80;;;13.30;99.90;;;;;;5141137;27;20493;-66
2023/05/08 04:23:36;;;;;;;5.50;5.30;;;13.20;99.90;;;;;;5142874;27;20471;-67
2023/05/08 04:26:06;;;;;;;5.53;5.33;;;13.20;99.90;;;;;;5144769;27;20463;-68
2023/05/08 04:28:34;;;;;;;5.87;5.67;;;13.30;99.90;;;;;;5145671;27;21128;-68
2023/05/08 04:31:04;;;;;;;6.00;5.80;;;13.20;99.90;;;;;;5149457;27;20538;-68
2023/05/08 04:33:33;;;;;;;6.37;6.17;;;13.20;99.90;;;;;;5144145;27;20452;-68
2023/05/08 04:36:02;;;;;;;5.73;5.53;;;13.20;99.90;;;;;;5139749;27;20893;-68
2023/05/08 04:38:29;;;;;;;6.37;6.17;;;13.20;99.90;;;;;;5149183;27;20452;-69
2023/05/08 04:40:56;;;;;;;5.70;5.50;;;13.20;99.90;;;;;;5139492;27;20632;-69
2023/05/08 04:43:24;;;;;;;5.43;5.23;;;13.30;99.90;;;;;;5146897;27;20464;-68
2023/05/08 04:45:51;;;;;;;5.47;5.27;;;13.30;99.90;;;;;;5142846;27;20935;-68
2023/05/08 04:48:18;;;;;;;6.40;6.07;;;13.30;99.90;;;;;;5147703;27;21017;-68
2023/05/08 04:50:45;;;;;;;5.87;5.67;;;13.40;99.90;;;;;;5147449;27;20452;-68
2023/05/08 04:53:13;;;;;;;5.83;5.63;;;13.40;99.90;;;;;;5142921;27;21026;-68
2023/05/08 04:55:41;;;;;;;5.70;5.50;;;13.40;99.90;;;;;;5150045;27;20455;-68
2023/05/08 04:58:10;;;;;;;6.13;5.93;;;13.50;99.90;;;;;;5142811;27;20523;-67
2023/05/08 05:00:39;;;;;;;6.00;5.80;;;13.50;99.90;;;;;;5150443;27;20463;-68
2023/05/08 05:03:06;;;;;;;5.90;5.70;;;13.50;99.90;;;;;;5136268;27;20455;-66
2023/05/08 05:05:35;;;;;;;5.57;5.37;;;13.60;99.90;;;;;;5137542;27;20553;-66
2023/05/08 05:08:03;;;;;;;5.40;5.20;;;13.70;99.90;;;;;;5139672;27;20464;-66
2023/05/08 05:10:29;;;;;;;5.37;5.17;;;13.80;99.90;;;;;;5131064;27;20459;-67
2023/05/08 05:12:57;;;;;;;4.93;4.83;;;14.00;99.90;;;;;;5135465;27;20491;-68
2023/05/08 05:15:23;;;;;;;4.73;4.63;;;14.10;99.90;;;;;;5142091;27;20478;-67
2023/05/08 05:17:52;;;;;;;4.80;4.70;;;14.20;99.90;;;;;;5136047;27;20557;-67
2023/05/08 05:20:19;;;;;;;5.23;5.03;;;14.30;99.90;;;;;;5138825;27;20551;-67
2023/05/08 05:22:45;;;;;;;4.47;4.37;;;14.30;99.90;;;;;;5137047;27;20818;-67
2023/05/08 05:25:13;;;;;;;4.00;3.90;;;14.40;99.90;;;;;;5133967;27;20748;-66
2023/05/08 05:27:40;;;;;;;4.50;4.40;;;14.50;99.90;;;;;;5146122;27;20530;-66
2023/05/08 05:30:08;;;;;;;4.20;4.10;;;14.60;99.90;;;;;;5135022;27;20471;-67
2023/05/08 05:32:36;;;;;;;4.60;4.50;;;14.70;99.90;;;;;;5134842;27;20475;-67
2023/05/08 05:35:06;;;;;;;4.63;4.53;;;14.80;99.90;;;;;;5140918;27;20957;-66
2023/05/08 05:37:34;;;;;;;4.33;4.23;;;15.00;99.90;;;;;;5141348;27;20474;-67
2023/05/08 05:40:01;;;;;;;4.80;4.70;;;15.10;99.90;;;;;;5141940;27;20816;-66
2023/05/08 05:42:28;;;;;;;4.67;4.57;;;15.20;99.90;;;;;;5140056;27;20601;-66
2023/05/08 05:44:56;;;;;;;4.50;4.40;;;15.20;99.90;;;;;;5139207;27;20456;-67
2023/05/08 05:47:23;;;;;;;6.10;5.70;;;15.30;99.90;;;;;;5138779;27;20511;-67
2023/05/08 05:49:50;;;;;;;4.40;4.30;;;15.40;99.90;;;;;;5136745;27;21008;-67
2023/05/08 05:52:18;;;;;;;4.50;4.30;;;15.40;99.90;;;;;;5136760;27;20893;-66
2023/05/08 05:54:45;;;;;;;4.30;4.20;;;15.50;99.90;;;;;;5137743;27;20815;-66
2023/05/08 05:57:13;;;;;;;4.30;4.10;;;15.60;99.90;;;;;;5141324;27;20542;-66
2023/05/08 05:59:40;;;;;;;4.67;4.57;;;15.70;99.90;;;;;;5139142;27;20570;-66
2023/05/08 06:02:09;;;;;;;4.73;4.63;;;15.80;99.90;;;;;;5141312;27;20455;-67
2023/05/08 06:04:36;;;;;;;4.80;4.70;;;15.90;99.90;;;;;;5135098;27;20460;-67
2023/05/08 06:07:04;;;;;;;4.60;4.50;;;16.00;99.90;;;;;;5135629;27;20458;-66
2023/05/08 06:09:33;;;;;;;8.87;8.13;;;16.00;99.90;;;;;;5134996;27;20565;-66
2023/05/08 06:12:00;;;;;;;6.17;5.90;;;16.10;99.90;;;;;;5140184;27;20475;-66
2023/05/08 06:14:27;;;;;;;6.67;6.47;;;16.10;99.90;;;;;;5144266;27;20526;-66
2023/05/08 06:16:54;;;;;;;5.00;4.80;;;16.10;99.90;;;;;;5134417;27;20484;-67
2023/05/08 06:19:23;;;;;;;5.40;5.20;;;16.10;99.90;;;;;;5138519;27;20455;-67
2023/05/08 06:21:51;;;;;;;4.50;4.40;;;16.00;99.90;;;;;;5143175;27;20459;-67
2023/05/08 06:24:18;;;;;;;4.93;4.73;;;16.10;99.90;;;;;;5135683;27;20554;-66
2023/05/08 06:26:46;;;;;;;7.77;7.37;;;16.10;99.90;;;;;;5133637;27;20481;-67
2023/05/08 06:29:13;;;;;;;4.67;4.57;;;16.00;99.90;;;;;;5139529;27;21076;-66
2023/05/08 06:31:41;;;;;;;5.33;5.13;;;16.00;99.90;;;;;;5132827;27;21044;-66
2023/05/08 06:34:08;;;;;;;5.27;5.07;;;16.00;99.90;;;;;;5140845;27;20456;-67
2023/05/08 06:36:35;;;;;;;5.43;5.23;;;16.10;99.90;;;;;;5133991;27;20472;-67
2023/05/08 06:39:04;;;;;;;4.30;4.20;;;16.10;99.90;;;;;;5133034;27;20460;-68
2023/05/08 06:41:31;;;;;;;12.27;8.47;;;16.20;99.90;;;;;;5135840;27;20865;-67
2023/05/08 06:43:59;;;;;;;4.80;4.70;;;16.30;99.90;;;;;;5138107;27;20857;-67
2023/05/08 06:46:26;;;;;;;4.10;4.00;;;16.40;99.90;;;;;;5141034;27;20455;-68
2023/05/08 06:48:53;;;;;;;3.77;3.67;;;16.50;99.90;;;;;;5140399;27;20594;-67
2023/05/08 06:51:21;;;;;;;6.10;5.70;;;16.70;99.90;;;;;;5142573;27;20497;-67
2023/05/08 06:53:49;;;;;;;4.37;4.27;;;16.90;99.90;;;;;;5136461;27;20578;-67
2023/05/08 06:56:16;;;;;;;4.83;4.63;;;17.10;99.90;;;;;;5146551;27;20455;-67
2023/05/08 06:58:43;;;;;;;4.90;4.80;;;17.30;99.90;;;;;;5142480;27;20492;-67
2023/05/08 07:01:12;;;;;;;8.97;8.27;;;17.20;99.90;;;;;;5142537;27;20509;-67
2023/05/08 07:03:40;;;;;;;5.50;5.30;;;17.30;99.90;;;;;;5134493;27;21155;-68
2023/05/08 07:06:07;;;;;;;7.10;6.70;;;17.40;99.90;;;;;;5131960;27;20470;-67
2023/05/08 07:08:34;;;;;;;7.23;6.83;;;17.50;99.90;;;;;;5138394;27;20542;-68
2023/05/08 07:11:01;;;;;;;6.60;6.40;;;17.70;99.90;;;;;;5136440;27;20465;-67
2023/05/08 07:13:29;;;;;;;7.30;7.10;;;17.90;99.90;;;;;;5132001;27;20486;-68
2023/05/08 07:15:56;;;;;;;8.00;7.70;;;18.00;99.90;;;;;;5141738;27;21074;-68
2023/05/08 07:18:24;;;;;;;7.90;7.60;;;18.40;99.90;;;;;;5135013;27;20595;-67
2023/05/08 07:20:52;;;;;;;8.53;8.23;;;18.50;99.90;;;;;;5136269;27;20473;-68
2023/05/08 07:23:20;;;;;;;10.63;9.87;;;19.10;99.90;;;;;;5140244;27;20920;-68
2023/05/08 07:25:47;;;;;;;9.40;9.10;;;19.30;99.90;;;;;;5139805;27;20463;-68
2023/05/08 07:28:16;;;;;;;12.33;11.30;;;19.60;99.90;;;;;;5138022;27;20478;-68
2023/05/08 07:30:43;;;;;;;13.40;12.57;;;19.80;99.90;;;;;;5137593;27;20538;-69
2023/05/08 07:33:10;;;;;;;11.90;11.40;;;19.90;99.90;;;;;;5140675;27;20548;-68
2023/05/08 07:35:39;;;;;;;11.80;11.30;;;20.20;99.90;;;;;;5135731;27;20460;-68
2023/05/08 07:38:06;;;;;;;12.60;12.10;;;20.30;99.90;;;;;;5138737;27;20953;-68
2023/05/08 07:40:33;;;;;;;12.70;12.20;;;20.60;99.90;;;;;;5145396;27;20535;-68
2023/05/08 07:43:00;;;;;;;13.10;12.60;;;20.60;99.90;;;;;;5137063;27;20501;-68
2023/05/08 07:45:27;;;;;;;12.30;11.80;;;20.60;99.90;;;;;;5145520;27;20463;-69
2023/05/08 07:47:56;;;;;;;13.27;12.67;;;20.80;99.90;;;;;;5142105;27;20991;-68
2023/05/08 07:50:24;;;;;;;12.80;12.30;;;20.90;99.90;;;;;;5142288;27;20892;-68
2023/05/08 07:52:53;;;;;;;13.60;13.00;;;20.90;99.90;;;;;;5143704;27;20800;-68
2023/05/08 07:55:21;;;;;;;16.27;15.37;;;20.90;99.90;;;;;;5139764;27;20466;-69
2023/05/08 07:57:47;;;;;;;14.27;13.67;;;20.60;99.90;;;;;;5150355;27;20555;-69
2023/05/08 08:00:16;;;;;;;12.90;12.40;;;20.60;99.90;;;;;;5135154;27;20464;-69
2023/05/08 08:02:43;;;;;;;13.20;12.70;;;20.50;99.90;;;;;;5145611;27;20459;-69
2023/05/08 08:05:10;;;;;;;13.70;13.10;;;20.60;99.90;;;;;;5142483;27;20486;-69
2023/05/08 08:07:37;;;;;;;13.77;13.17;;;20.70;99.90;;;;;;5150890;27;20868;-69
2023/05/08 08:10:07;;;;;;;14.20;13.60;;;20.80;99.90;;;;;;5144426;27;20554;-69
2023/05/08 08:12:34;;;;;;;14.07;13.47;;;20.80;99.90;;;;;;5138756;27;20495;-69
2023/05/08 08:15:01;;;;;;;14.13;13.53;;;20.80;99.90;;;;;;5148906;27;20471;-69
2023/05/08 08:17:29;;;;;;;14.20;13.60;;;21.10;99.90;;;;;;5145730;27;20487;-69
2023/05/08 08:19:56;;;;;;;13.97;13.37;;;21.60;99.90;;;;;;5140334;27;20543;-68
2023/05/08 08:22:23;;;;;;;13.97;13.37;;;21.90;99.90;;;;;;5146910;27;20512;-69
2023/05/08 08:24:50;;;;;;;14.73;14.03;;;22.00;99.90;;;;;;5143270;27;20524;-68
2023/05/08 08:27:19;;;;;;;14.40;13.77;;;21.80;99.90;;;;;;5143673;27;20857;-69
2023/05/08 08:29:46;;;;;;;15.97;15.27;;;21.80;99.90;;;;;;5144400;27;20464;-69
2023/05/08 08:32:13;;;;;;;14.97;14.17;;;22.00;99.90;;;;;;5144777;27;20456;-68
2023/05/08 08:34:39;;;;;;;15.83;15.03;;;22.20;99.90;;;;;;5136363;27;21019;-68
2023/05/08 08:37:06;;;;;;;15.37;14.67;;;22.50;99.90;;;;;;5140823;27;20461;-69
2023/05/08 08:39:34;;;;;;;15.17;14.47;;;22.70;99.90;;;;;;5137390;27;20460;-67
2023/05/08 08:42:02;;;;;;;14.93;14.33;;;23.30;99.90;;;;;;5144140;27;20455;-68
2023/05/08 08:44:30;;;;;;;15.70;14.90;;;23.50;99.90;;;;;;5145621;27;20458;-69
2023/05/08 08:46:59;;;;;;;15.87;15.17;;;23.70;99.90;;;;;;5149199;27;20569;-69
2023/05/08 08:49:31;;;;;;;15.47;14.77;;;23.90;99.90;;;;;;5146067;27;20931;-68
2023/05/08 08:52:01;;;;;;;14.90;14.30;;;23.80;99.90;;;;;;5136170;27;20469;-68
2023/05/08 08:54:30;;;;;;;15.07;14.37;;;23.90;99.90;;;;;;5135539;27;20492;-69
2023/05/08 08:57:00;;;;;;;15.30;14.60;;;24.00;99.90;;;;;;5142028;27;20523;-68
2023/05/08 08:59:28;;;;;;;15.70;15.00;;;24.50;99.90;;;;;;5142916;27;20452;-68
2023/05/08 09:02:01;;;;;;;16.10;15.40;;;24.40;99.90;;;;;;5134972;27;20452;-68
2023/05/08 09:04:28;;;;;;;15.57;14.87;;;23.90;99.90;;;;;;5147218;27;20930;-68
2023/05/08 09:06:57;;;;;;;15.10;14.40;;;24.20;99.90;;;;;;5138480;27;20516;-68
2023/05/08 09:09:24;;;;;;;15.30;14.60;;;24.30;99.90;;;;;;5142827;27;20460;-68
2023/05/08 09:11:52;;;;;;;16.50;15.70;;;24.70;99.90;;;;;;5138308;27;20899;-68
2023/05/08 09:14:19;;;;;;;18.43;17.53;;;25.40;99.90;;;;;;5144576;27;20524;-68
2023/05/08 09:16:46;;;;;;;16.47;15.73;;;26.00;99.90;;;;;;5143778;27;20483;-68
2023/05/08 09:19:17;;;;;;;17.60;16.80;;;26.20;99.90;;;;;;5143057;27;20460;-69
2023/05/08 09:21:44;;;;;;;15.77;15.07;;;26.40;99.90;;;;;;5137666;27;20835;-69
2023/05/08 09:24:11;;;;;;;18.27;17.27;;;26.80;99.90;;;;;;5132880;27;20683;-68
2023/05/08 09:26:40;;;;;;;15.03;14.43;;;26.60;99.90;;;;;;5144389;27;20978;-67
2023/05/08 09:29:14;;;;;;;17.33;16.53;;;26.30;99.90;;;;;;5135625;27;20554;-68
2023/05/08 09:31:43;;;;;;;16.50;15.70;;;26.70;99.90;;;;;;5142633;27;20458;-67
2023/05/08 09:34:22;;;;;;;16.63;15.93;;;27.30;99.90;;;;;;5140570;27;20490;-67
2023/05/08 09:36:51;;;;;;;16.50;15.80;;;27.80;99.90;;;;;;5140357;27;21060;-67
2023/05/08 09:39:22;;;;;;;16.63;15.93;;;28.30;99.90;;;;;;5147344;27;21036;-68
2023/05/08 09:41:59;;;;;;;17.20;16.40;;;28.40;99.90;;;;;;5144373;27;20455;-67
2023/05/08 09:44:26;;;;;;;16.27;15.57;;;27.80;99.90;;;;;;5139048;27;20454;-68
2023/05/08 09:47:09;;;;;;;16.67;15.90;;;27.80;99.90;;;;;;5132804;27;20977;-65
2023/05/08 09:49:38;;;;;;;17.00;16.20;;;28.60;99.90;;;;;;5133066;27;20965;-66
2023/05/08 09:52:07;;;;;;;16.60;15.90;;;28.30;99.90;;;;;;5139238;27;20475;-66
2023/05/08 09:54:34;;;;;;;16.77;16.07;;;28.60;99.90;;;;;;5148704;27;20491;-66
2023/05/08 09:57:10;;;;;;;16.90;16.20;;;29.50;99.90;;;;;;5138942;27;20468;-66
2023/05/08 09:59:38;;;;;;;16.53;15.83;;;29.70;99.90;;;;;;5149177;27;20458;-66
2023/05/08 10:02:14;;;;;;;16.60;15.90;;;29.60;99.90;;;;;;5142603;27;20496;-67
2023/05/08 10:04:41;;;;;;;16.77;16.07;;;29.50;99.90;;;;;;5143476;27;20496;-66
2023/05/08 10:07:10;;;;;;;16.50;15.80;;;29.10;99.90;;;;;;5141613;27;20491;-66
2023/05/08 10:09:37;;;;;;;16.17;15.47;;;27.80;99.90;;;;;;5133787;27;20462;-66
2023/05/08 10:12:07;;;;;;;16.10;15.40;;;28.10;99.90;;;;;;5147966;27;20539;-67
2023/05/08 10:14:34;;;;;;;16.10;15.40;;;28.40;99.90;;;;;;5134535;27;20571;-67
2023/05/08 10:17:09;;;;;;;16.80;16.10;;;27.90;99.90;;;;;;5136764;27;20491;-69
2023/05/08 10:19:39;;;;;;;16.50;15.80;;;28.30;99.90;;;;;;5147499;27;20450;-67
2023/05/08 10:22:12;;;;;;;16.00;15.40;;;28.80;99.90;;;;;;5143412;27;21002;-67
2023/05/08 10:24:41;;;;;;;15.63;15.03;;;29.70;99.90;;;;;;5146234;27;20487;-67
2023/05/08 10:27:16;;;;;;;16.30;15.60;;;30.10;99.90;;;;;;5145429;27;20455;-67
2023/05/08 10:29:52;;;;;;;15.70;15.10;;;30.20;99.90;;;;;;5138087;27;20898;-67
2023/05/08 10:32:20;;;;;;;15.70;15.10;;;29.70;99.90;;;;;;5148349;27;20455;-67
2023/05/08 10:34:52;;;;;;;15.70;15.10;;;29.80;99.90;;;;;;5143533;27;20483;-67
2023/05/08 10:37:22;;;;;;;16.00;15.40;;;29.70;99.90;;;;;;5143362;27;20913;-67
2023/05/08 10:39:50;;;;;;;16.53;15.83;;;29.90;99.90;;;;;;5134999;27;20467;-67
2023/05/08 10:42:17;;;;;;;16.70;16.00;;;29.70;99.90;;;;;;5135729;27;20960;-67
2023/05/08 10:44:44;;;;;;;15.50;14.90;;;29.70;99.90;;;;;;5139395;27;20974;-68
2023/05/08 10:47:17;;;;;;;16.47;15.77;;;29.50;99.90;;;;;;5144179;27;20944;-69
2023/05/08 10:49:55;;;;;;;16.30;15.67;;;29.40;99.90;;;;;;5143228;27;20459;-68
2023/05/08 10:52:32;;;;;;;15.80;15.20;;;29.00;99.90;;;;;;5143473;27;20528;-68
2023/05/08 10:55:19;;;;;;;16.03;15.33;;;29.10;99.90;;;;;;5149348;27;20980;-68
2023/05/08 10:58:11;;;;;;;15.50;14.90;;;29.00;99.90;;;;;;5147489;27;20463;-68
2023/05/08 11:01:14;;;;;;;16.07;15.37;;;28.50;99.90;;;;;;5138438;27;20443;-68
2023/05/08 11:03:49;;;;;;;16.50;15.80;;;29.40;99.90;;;;;;5129599;27;20994;-68
2023/05/08 11:06:17;;;;;;;16.93;16.23;;;28.90;99.90;;;;;;5143211;27;20544;-68
2023/05/08 11:08:51;;;;;;;15.87;15.27;;;27.90;99.90;;;;;;5143969;27;20459;-69
2023/05/08 11:11:27;;;;;;;15.30;14.70;;;27.80;99.90;;;;;;5141374;27;20452;-68
2023/05/08 11:13:59;;;;;;;15.33;14.73;;;28.60;99.90;;;;;;5141457;27;20491;-68
2023/05/08 11:17:03;;;;;;;15.87;15.27;;;29.50;99.90;;;;;;5140166;27;20466;-68
2023/05/08 11:19:31;;;;;;;16.50;15.80;;;29.60;99.90;;;;;;5147228;27;20962;-68
2023/05/08 11:22:22;;;;;;;15.50;14.90;;;29.70;99.90;;;;;;5145139;27;20463;-69
2023/05/08 11:24:54;;;;;;;16.07;15.47;;;30.00;99.90;;;;;;5139712;27;20514;-69
2023/05/08 11:27:35;;;;;;;15.67;15.07;;;29.50;99.70;;;;;;5141758;27;20929;-68
2023/05/08 11:30:25;;;;;;;16.87;16.17;;;29.00;99.20;;;;;;5150870;27;20901;-69
2023/05/08 11:33:14;;;;;;;16.13;15.53;;;28.50;99.70;;;;;;5150354;27;20819;-68
2023/05/08 11:35:42;;;;;;;15.83;15.23;;;28.40;99.90;;;;;;5094682;27;20490;-69
2023/05/08 11:38:15;;;;;;;16.80;16.10;;;28.00;99.90;;;;;;5144247;27;20455;-68
2023/05/08 11:40:49;;;;;;;17.10;16.40;;;27.90;99.90;;;;;;5134749;27;20808;-69
2023/05/08 11:43:49;;;;;;;16.57;15.87;;;27.80;99.90;;;;;;5138702;27;20463;-68
2023/05/08 11:46:17;;;;;;;15.77;15.17;;;28.20;99.90;;;;;;5140863;27;20463;-67
2023/05/08 11:48:44;;;;;;;16.40;15.70;;;27.40;99.90;;;;;;5144076;27;20463;-68
2023/05/08 11:51:12;;;;;;;16.33;15.63;;;28.10;99.90;;;;;;5140667;27;20468;-67
2023/05/08 11:53:40;;;;;;;15.90;15.30;;;28.70;99.90;;;;;;5135243;27;20460;-69
2023/05/08 11:56:08;;;;;;;16.07;15.37;;;29.20;99.90;;;;;;5140041;27;20551;-68
2023/05/08 11:58:36;;;;;;;16.37;15.70;;;29.40;99.90;;;;;;5138719;27;20458;-69
2023/05/08 12:01:03;;;;;;;15.20;14.60;;;28.50;99.90;;;;;;5143704;27;20504;-67
2023/05/08 12:03:31;;;;;;;15.10;14.50;;;27.90;99.90;;;;;;5138950;27;20950;-68
2023/05/08 12:05:59;;;;;;;15.40;14.80;;;27.80;99.90;;;;;;5139520;27;20485;-68
2023/05/08 12:08:26;;;;;;;15.80;15.10;;;27.60;99.90;;;;;;5142209;27;20458;-68
2023/05/08 12:10:56;;;;;;;16.27;15.57;;;27.20;99.90;;;;;;5148391;27;20463;-67
2023/05/08 12:13:25;;;;;;;18.13;17.23;;;26.70;99.90;;;;;;5139394;27;20464;-67
2023/05/08 12:15:54;;;;;;;15.33;14.73;;;26.20;99.90;;;;;;5144770;27;20554;-67
2023/05/08 12:18:22;;;;;;;15.13;14.53;;;26.30;99.90;;;;;;5137687;27;20488;-68
2023/05/08 12:20:52;;;;;;;17.47;16.50;;;26.10;99.90;;;;;;5141776;27;20464;-67
2023/05/08 12:23:19;;;;;;;15.93;15.23;;;25.10;99.90;;;;;;5136196;27;20555;-68
2023/05/08 12:25:46;;;;;;;15.27;14.67;;;24.80;99.90;;;;;;5150608;27;21077;-67
2023/05/08 12:28:13;;;;;;;15.37;14.77;;;25.00;99.90;;;;;;5141892;27;20464;-66
2023/05/08 12:30:42;;;;;;;15.00;14.40;;;25.40;99.90;;;;;;5141793;27;20940;-68
2023/05/08 12:33:10;;;;;;;15.20;14.60;;;25.30;99.90;;;;;;5144541;27;20459;-67
2023/05/08 12:35:37;;;;;;;15.03;14.43;;;25.00;99.90;;;;;;5134511;27;20460;-67
2023/05/08 12:38:06;;;;;;;15.20;14.60;;;25.00;99.90;;;;;;5139783;27;21534;-67
2023/05/08 12:40:35;;;;;;;15.53;14.93;;;24.80;99.90;;;;;;5143770;27;20468;-67
2023/05/08 12:43:02;;;;;;;15.20;14.60;;;24.40;99.90;;;;;;5137758;27;21059;-67
2023/05/08 12:45:32;;;;;;;14.80;14.20;;;24.60;99.90;;;;;;5139921;27;20482;-67
2023/05/08 12:48:02;;;;;;;15.13;14.43;;;24.20;99.90;;;;;;5146084;27;20455;-67
2023/05/08 12:50:33;;;;;;;15.20;14.60;;;23.90;99.90;;;;;;5148427;27;20468;-67
2023/05/08 12:53:03;;;;;;;14.80;14.20;;;23.50;99.90;;;;;;5136751;27;20460;-67